Windsor Airport
CYQG : now visible

Airfield :











YOU CAN JOIN US ON...

 
LOGIN :

Register | Disclaimer

   EN    FR    IT 

 









Legend :    VFR   Marginal VFR   IFR   Intensive IFR   Very Intensive IFR
Visi :
Ceiling :
>= 8 km
>= 3000ft
5 to 8 km
1000 to 3000 ft
1500m to 5 km
500 to 1000 ft
800 to 1500m
200 to 500 ft
< 800m
< 200 ft
Symbols :   Thunderstorms  Fog  Heavy snow  Heavy precipitations  Wind > 20 kt






- Airport Elevation : 622 ft
- IATA code : YQG


CYQG - Windsor

CURRENT METAR :
  • 242340Z AUTO 10010G15KT 3SM -RA BR OVC004 02/02 A2984 RMK SLP111

EXPIRED METARs :
  • 242329Z AUTO 11011G19KT 2 1/4SM -RA BR OVC004 02/02 A2985 RMK SLP115
  • 242300Z AUTO 10013G20KT 3SM -RA BR OVC004 02/02 A2984 RMK SLP113
  • 242252Z AUTO 10015G20KT 2SM -RA BR OVC004 02/02 A2985 RMK SLP115
  • 242231Z AUTO 10012KT 1 3/4SM -RA BR OVC006 02/01 A2985 RMK SLP116
  • 242227Z AUTO 10012G17KT 2 1/2SM -RA BR OVC006 02/01 A2985 RMK SLP115
  • 242200Z AUTO 10012G17KT 9SM -RA OVC008 02/01 A2985 RMK SLP115
  • 242115Z AUTO 10011G19KT 6SM -RA BR OVC006 02/01 A2987 RMK SLP123
  • 242102Z AUTO 10011G16KT 3SM -RA BR OVC006 02/01 A2987 RMK SLP124
  • 242051Z AUTO 10010G16KT 2SM -RA BR OVC008 02/01 A2988 RMK SLP126

TAF AMD TAF CYQG
Valid from the 24 at 23:00 until the 25 at 18:00 UTC


242308Z 2423/2518 10012G22KT 3SM -RA BR OVC004
TEMPO 2423/2505 P6SM -RA OVC006
BECMG 2503/2505 20005KT
FM250500 20005KT 1SM -RA -DZ BR OVC004
FM251400 23012KT P6SM BKN006 OVC015
FM251700 23012KT P6SM SCT008 OVC015 RMK FCST BASED ON AUTO OBS. NXT FCST BY 250000Z



MET'MAP, your aeronautical weather chart ! - Copyright ORBIFLY December 2007 - Disclaimer

ORBIFLY MET'MAP TEAM :

Programming & Development : Alexandra Zaïnal
Concept & original design : Baudouin d'Aumeries
Assistance for programming : Marc-Olivier Méhu
Technical & hardware support : Manuel Goepfert

Contact : metmap@orbifly.com




SOURCES & CREDITS :

   NOAA       Earth
Advisory